Time;durP1;ratioP1;P1;durP2;ratioP2;P2;SDS_P1;SDS_P2;PMS_P1;PMS_P2;Temp;Humidity;BMP_temperature;BMP_pressure;BME280_temperature;BME280_humidity;BME280_pressure;Samples;Min_cycle;Max_cycle;Signal;HPM_P1;HPM_P2
2021/05/12 00:01:20;;;;;;;4.03;3.63;;;10.60;99.90;;;;;;472794;251;28494;-70
2021/05/12 00:03:21;;;;;;;5.60;4.33;;;10.60;99.90;;;;;;472821;251;28359;-70
2021/05/12 00:05:22;;;;;;;7.13;4.90;;;10.60;99.90;;;;;;472857;251;27981;-71
2021/05/12 00:07:23;;;;;;;6.23;4.70;;;10.60;99.90;;;;;;472840;251;28018;-71
2021/05/12 00:09:25;;;;;;;12.13;4.00;;;10.60;99.90;;;;;;472855;251;27913;-73
2021/05/12 00:11:26;;;;;;;5.70;4.07;;;10.50;99.90;;;;;;472829;251;27889;-71
2021/05/12 00:13:27;;;;;;;5.73;4.47;;;10.40;99.90;;;;;;472844;251;28031;-71
2021/05/12 00:15:28;;;;;;;10.53;4.50;;;10.40;99.90;;;;;;472821;251;28003;-71
2021/05/12 00:17:30;;;;;;;5.50;4.43;;;10.50;99.90;;;;;;472808;251;28027;-71
2021/05/12 00:19:33;;;;;;;5.83;5.07;;;10.40;99.90;;;;;;472818;251;28125;-72
2021/05/12 00:21:42;;;;;;;10.03;5.40;;;10.40;99.90;;;;;;472790;251;28437;-71
2021/05/12 00:23:57;;;;;;;9.40;6.27;;;10.40;99.90;;;;;;472766;251;28005;-71
2021/05/12 00:25:46;;;;;;;6.43;5.50;;;10.50;99.90;;;;;;472488;251;28320;-71
2021/05/12 00:27:47;;;;;;;8.77;6.23;;;10.50;99.90;;;;;;472842;251;28025;-71
2021/05/12 00:29:49;;;;;;;12.90;7.40;;;10.50;99.90;;;;;;472844;251;27948;-70
2021/05/12 00:31:50;;;;;;;13.03;7.77;;;10.40;99.90;;;;;;472597;251;27896;-71
2021/05/12 00:33:51;;;;;;;6.73;6.03;;;10.40;99.90;;;;;;472626;251;27924;-72
2021/05/12 00:35:52;;;;;;;8.73;6.93;;;10.40;99.90;;;;;;472823;251;27920;-70
2021/05/12 00:37:54;;;;;;;9.30;7.00;;;10.30;99.90;;;;;;472829;251;28063;-71
2021/05/12 00:39:55;;;;;;;8.33;7.00;;;10.40;99.90;;;;;;472839;251;27878;-71
2021/05/12 00:41:56;;;;;;;9.70;6.70;;;10.40;99.90;;;;;;472802;251;27918;-71
2021/05/12 00:43:57;;;;;;;9.50;7.50;;;10.40;99.90;;;;;;472834;251;28424;-72
2021/05/12 00:45:59;;;;;;;7.57;6.43;;;10.30;99.90;;;;;;472825;246;28429;-70
2021/05/12 00:48:00;;;;;;;7.57;6.20;;;10.30;99.90;;;;;;472854;250;28374;-71
2021/05/12 00:50:01;;;;;;;8.77;7.03;;;10.30;99.90;;;;;;472844;251;28479;-70
2021/05/12 00:52:02;;;;;;;8.63;6.20;;;10.30;99.90;;;;;;472810;251;28019;-71
2021/05/12 00:54:04;;;;;;;7.00;5.87;;;10.40;99.90;;;;;;472839;251;27921;-73
2021/05/12 00:56:05;;;;;;;12.83;7.13;;;10.40;99.90;;;;;;472827;251;27824;-71
2021/05/12 00:58:06;;;;;;;8.80;6.73;;;10.30;99.90;;;;;;472840;251;28020;-71
2021/05/12 01:00:07;;;;;;;9.63;5.83;;;10.40;99.90;;;;;;472836;251;28071;-70
2021/05/12 01:02:09;;;;;;;9.90;7.40;;;10.40;99.90;;;;;;472828;251;28200;-71
2021/05/12 01:04:10;;;;;;;11.10;9.43;;;10.30;99.90;;;;;;472813;251;28038;-72
2021/05/12 01:06:11;;;;;;;11.10;9.37;;;10.30;99.90;;;;;;472834;251;27932;-71
2021/05/12 01:08:13;;;;;;;12.07;8.60;;;10.20;99.90;;;;;;472823;251;28324;-71
2021/05/12 01:10:14;;;;;;;11.40;8.33;;;10.30;99.90;;;;;;472818;251;28303;-70
2021/05/12 01:12:15;;;;;;;10.70;8.43;;;10.30;99.90;;;;;;472834;251;27785;-70
2021/05/12 01:14:16;;;;;;;9.93;7.93;;;10.30;99.90;;;;;;472824;248;27918;-73
2021/05/12 01:16:18;;;;;;;14.60;9.20;;;10.30;99.90;;;;;;472838;251;27902;-71
2021/05/12 01:18:19;;;;;;;13.60;10.53;;;10.30;99.90;;;;;;472856;251;27890;-72
2021/05/12 01:20:20;;;;;;;11.30;8.73;;;10.30;99.90;;;;;;472869;251;28571;-71
2021/05/12 01:22:21;;;;;;;8.77;7.33;;;10.30;99.90;;;;;;472808;251;27900;-71
2021/05/12 01:24:23;;;;;;;11.90;8.17;;;10.40;99.90;;;;;;472843;251;27924;-72
2021/05/12 01:26:24;;;;;;;11.07;9.50;;;10.40;99.90;;;;;;472833;251;27908;-70
2021/05/12 01:28:25;;;;;;;11.20;8.67;;;10.40;99.90;;;;;;472801;251;27905;-71
2021/05/12 01:30:26;;;;;;;13.17;10.90;;;10.40;99.90;;;;;;472837;251;27884;-71
2021/05/12 01:32:34;;;;;;;14.83;11.87;;;10.40;99.90;;;;;;472792;251;27691;-72
2021/05/12 01:34:29;;;;;;;9.87;8.87;;;10.30;99.90;;;;;;472627;251;28436;-72
2021/05/12 01:36:30;;;;;;;13.63;10.73;;;10.40;99.90;;;;;;472844;251;28377;-71
2021/05/12 01:38:31;;;;;;;16.70;11.67;;;10.40;99.90;;;;;;472844;251;28167;-71
2021/05/12 01:40:33;;;;;;;12.23;10.60;;;10.30;99.90;;;;;;472845;251;27871;-70
2021/05/12 01:42:34;;;;;;;13.20;10.00;;;10.30;99.90;;;;;;472676;251;27971;-71
2021/05/12 01:44:35;;;;;;;13.37;9.57;;;10.30;99.90;;;;;;472807;251;28097;-73
2021/05/12 01:46:37;;;;;;;14.10;11.33;;;10.40;99.90;;;;;;472829;251;27862;-70
2021/05/12 01:48:38;;;;;;;14.00;10.60;;;10.40;99.90;;;;;;472818;251;27782;-71
2021/05/12 01:50:39;;;;;;;16.60;11.57;;;10.40;99.90;;;;;;472831;251;28308;-71
2021/05/12 01:52:40;;;;;;;14.77;11.60;;;10.40;99.90;;;;;;472804;251;28580;-71
2021/05/12 01:54:42;;;;;;;12.90;11.50;;;10.30;99.90;;;;;;472828;251;27912;-73
2021/05/12 01:56:43;;;;;;;13.77;11.53;;;10.40;99.90;;;;;;472824;251;27872;-71
2021/05/12 01:58:44;;;;;;;13.87;12.13;;;10.30;99.90;;;;;;472828;251;27678;-70
2021/05/12 02:00:45;;;;;;;16.83;11.83;;;10.40;99.90;;;;;;472800;251;27747;-70
2021/05/12 02:02:47;;;;;;;15.30;12.50;;;10.30;99.90;;;;;;472803;251;28029;-71
2021/05/12 02:04:48;;;;;;;15.63;11.67;;;10.30;99.90;;;;;;472811;251;28458;-73
2021/05/12 02:06:49;;;;;;;18.70;12.43;;;10.30;99.90;;;;;;472832;251;28263;-70
2021/05/12 02:08:50;;;;;;;15.70;11.23;;;10.30;99.90;;;;;;472816;251;28012;-71
2021/05/12 02:10:52;;;;;;;16.93;12.60;;;10.30;99.90;;;;;;472824;251;28105;-71
2021/05/12 02:12:53;;;;;;;13.93;11.90;;;10.30;99.90;;;;;;472809;251;28010;-71
2021/05/12 02:14:54;;;;;;;13.03;11.60;;;10.30;99.90;;;;;;472832;251;27900;-72
2021/05/12 02:16:55;;;;;;;14.50;10.40;;;10.30;99.90;;;;;;472830;251;27889;-71
2021/05/12 02:18:57;;;;;;;13.63;10.63;;;10.40;99.90;;;;;;472824;251;28519;-71
2021/05/12 02:20:58;;;;;;;13.80;11.73;;;10.30;99.90;;;;;;472800;250;28396;-71
2021/05/12 02:22:59;;;;;;;12.60;11.30;;;10.30;99.90;;;;;;472812;251;27681;-70
2021/05/12 02:25:00;;;;;;;11.73;10.10;;;10.30;99.90;;;;;;472845;251;27978;-72
2021/05/12 02:27:02;;;;;;;15.60;11.73;;;10.30;99.90;;;;;;472844;251;28023;-71
2021/05/12 02:29:03;;;;;;;13.30;11.90;;;10.30;99.90;;;;;;472842;251;28040;-71
2021/05/12 02:31:04;;;;;;;17.80;13.03;;;10.30;99.90;;;;;;472858;251;27880;-70
2021/05/12 02:33:05;;;;;;;14.93;13.10;;;10.30;99.90;;;;;;472848;251;28436;-70
2021/05/12 02:35:07;;;;;;;13.60;11.90;;;10.30;99.90;;;;;;472837;251;28490;-72
2021/05/12 02:37:08;;;;;;;19.50;12.97;;;10.40;99.90;;;;;;472835;251;27943;-70
2021/05/12 02:39:09;;;;;;;15.40;13.77;;;10.30;99.90;;;;;;472860;251;28000;-71
2021/05/12 02:41:12;;;;;;;26.30;16.10;;;10.30;99.90;;;;;;472849;251;27940;-71
2021/05/12 02:43:12;;;;;;;15.63;13.40;;;10.30;99.90;;;;;;472831;251;27815;-71
2021/05/12 02:45:13;;;;;;;15.30;13.70;;;10.30;99.90;;;;;;472859;251;27934;-72
2021/05/12 02:47:14;;;;;;;18.73;15.90;;;10.30;99.90;;;;;;472874;251;28337;-71
2021/05/12 02:49:15;;;;;;;25.17;18.37;;;10.30;99.90;;;;;;472869;251;28376;-71
2021/05/12 02:51:17;;;;;;;21.30;15.67;;;10.30;99.90;;;;;;472868;251;28017;-70
2021/05/12 02:53:20;;;;;;;23.40;17.30;;;10.30;99.90;;;;;;472862;251;28051;-71
2021/05/12 02:55:19;;;;;;;28.80;18.10;;;10.30;99.90;;;;;;472725;251;27961;-72
2021/05/12 02:57:22;;;;;;;23.00;15.57;;;10.30;99.90;;;;;;472858;251;27931;-71
2021/05/12 02:59:22;;;;;;;26.07;17.50;;;10.30;99.90;;;;;;472824;251;27804;-71
2021/05/12 03:01:23;;;;;;;21.20;15.97;;;10.30;99.90;;;;;;472864;251;28577;-71
2021/05/12 03:03:24;;;;;;;22.47;14.20;;;10.30;99.90;;;;;;472859;251;28393;-71
2021/05/12 03:05:26;;;;;;;20.27;15.60;;;10.40;99.90;;;;;;472858;251;28042;-72
2021/05/12 03:07:27;;;;;;;20.80;14.80;;;10.40;99.90;;;;;;472859;251;27765;-70
2021/05/12 03:09:28;;;;;;;19.77;15.77;;;10.40;99.90;;;;;;472854;251;27976;-71
2021/05/12 03:11:29;;;;;;;23.40;18.40;;;10.40;99.90;;;;;;472856;251;27637;-71
2021/05/12 03:13:31;;;;;;;24.60;18.57;;;10.30;99.90;;;;;;472859;251;27919;-71
2021/05/12 03:15:32;;;;;;;25.03;18.40;;;10.30;99.90;;;;;;472871;251;28512;-72
2021/05/12 03:17:33;;;;;;;16.50;14.63;;;10.30;99.90;;;;;;472868;251;28469;-71
2021/05/12 03:19:34;;;;;;;24.07;18.83;;;10.30;99.90;;;;;;472862;251;27834;-72
2021/05/12 03:21:36;;;;;;;27.10;19.23;;;10.30;99.90;;;;;;472859;251;28085;-71
2021/05/12 03:23:37;;;;;;;19.67;17.53;;;10.30;99.90;;;;;;472849;251;27979;-71
2021/05/12 03:25:38;;;;;;;24.47;17.20;;;10.30;99.90;;;;;;472823;251;28334;-73
2021/05/12 03:27:39;;;;;;;17.07;15.27;;;10.30;99.90;;;;;;472866;251;27970;-71
2021/05/12 03:29:41;;;;;;;22.10;16.10;;;10.30;99.90;;;;;;472874;251;28031;-72
2021/05/12 03:31:42;;;;;;;19.30;15.03;;;10.30;99.90;;;;;;472862;251;28264;-71
2021/05/12 03:33:43;;;;;;;24.13;17.70;;;10.30;99.90;;;;;;472839;251;27990;-70
2021/05/12 03:35:44;;;;;;;18.47;15.30;;;10.20;99.90;;;;;;472841;251;27924;-72
2021/05/12 03:37:46;;;;;;;16.60;14.10;;;10.20;99.90;;;;;;472843;251;27895;-71
2021/05/12 03:39:47;;;;;;;26.83;19.23;;;10.30;99.90;;;;;;472825;251;27875;-71
2021/05/12 03:41:48;;;;;;;19.73;15.80;;;10.20;99.90;;;;;;472847;251;27867;-71
2021/05/12 03:43:49;;;;;;;18.77;16.20;;;10.30;99.90;;;;;;472817;251;28700;-71
2021/05/12 03:45:51;;;;;;;17.87;15.13;;;10.20;99.90;;;;;;472838;251;28644;-73
2021/05/12 03:47:52;;;;;;;18.93;16.30;;;10.20;99.90;;;;;;472834;251;27916;-71
2021/05/12 03:49:53;;;;;;;21.57;18.17;;;10.10;99.90;;;;;;472818;251;28015;-71
2021/05/12 03:51:55;;;;;;;20.37;17.40;;;10.20;99.90;;;;;;472832;251;28062;-71
2021/05/12 03:53:56;;;;;;;18.90;15.80;;;10.10;99.90;;;;;;472808;251;27800;-71
2021/05/12 03:55:57;;;;;;;18.53;14.87;;;10.10;99.90;;;;;;472835;251;27930;-72
2021/05/12 03:57:58;;;;;;;18.67;16.30;;;10.10;99.90;;;;;;472826;251;28520;-71
2021/05/12 04:00:00;;;;;;;23.17;17.20;;;10.20;99.90;;;;;;472836;251;28298;-71
2021/05/12 04:02:01;;;;;;;17.97;15.13;;;10.20;99.90;;;;;;472834;251;27884;-71
2021/05/12 04:04:06;;;;;;;24.00;15.87;;;10.20;99.90;;;;;;472807;251;27912;-71
2021/05/12 04:06:03;;;;;;;24.47;17.73;;;10.20;99.90;;;;;;472823;251;28350;-74
2021/05/12 04:08:05;;;;;;;16.90;14.70;;;10.20;99.90;;;;;;472876;251;27877;-71
2021/05/12 04:10:06;;;;;;;17.80;12.53;;;10.20;99.90;;;;;;472834;251;27634;-71
2021/05/12 04:12:07;;;;;;;16.97;14.37;;;10.20;99.90;;;;;;472858;251;28475;-71
2021/05/12 04:14:08;;;;;;;18.63;15.17;;;10.20;99.90;;;;;;472848;251;28390;-71
2021/05/12 04:16:10;;;;;;;20.17;15.50;;;10.20;99.90;;;;;;472844;250;28151;-73
2021/05/12 04:18:11;;;;;;;14.03;12.50;;;10.10;99.90;;;;;;472848;251;27878;-71
2021/05/12 04:20:12;;;;;;;19.33;13.03;;;10.20;99.90;;;;;;472841;251;27687;-72
2021/05/12 04:22:15;;;;;;;15.20;13.50;;;10.20;99.90;;;;;;472816;251;28121;-71
2021/05/12 04:24:15;;;;;;;14.83;12.83;;;10.20;99.90;;;;;;472812;251;27917;-71
2021/05/12 04:26:16;;;;;;;20.10;13.40;;;10.20;99.90;;;;;;472810;251;28452;-72
2021/05/12 04:28:17;;;;;;;19.30;15.10;;;10.20;99.90;;;;;;472857;251;28341;-71
2021/05/12 04:30:18;;;;;;;14.97;13.37;;;10.20;99.90;;;;;;472838;247;27989;-72
2021/05/12 04:32:20;;;;;;;16.57;12.13;;;10.20;99.90;;;;;;472829;248;28003;-71
2021/05/12 04:34:21;;;;;;;20.27;12.60;;;10.20;99.90;;;;;;472819;251;28086;-71
2021/05/12 04:36:22;;;;;;;19.03;14.20;;;10.10;99.90;;;;;;472828;251;27933;-73
2021/05/12 04:38:23;;;;;;;17.27;13.43;;;10.10;99.90;;;;;;472844;251;28137;-71
2021/05/12 04:40:25;;;;;;;21.70;14.13;;;10.10;99.90;;;;;;472828;251;28396;-72
2021/05/12 04:42:26;;;;;;;18.03;14.27;;;10.10;99.90;;;;;;472792;251;28324;-71
2021/05/12 04:44:27;;;;;;;22.03;15.10;;;10.20;99.90;;;;;;472829;251;27955;-71
2021/05/12 04:46:28;;;;;;;15.07;12.83;;;10.10;99.90;;;;;;472829;251;27999;-71
2021/05/12 04:48:30;;;;;;;20.73;15.83;;;10.10;99.90;;;;;;472831;251;27750;-71
2021/05/12 04:50:31;;;;;;;17.37;13.87;;;10.10;99.90;;;;;;472822;251;27888;-71
2021/05/12 04:52:32;;;;;;;17.10;13.47;;;10.10;99.90;;;;;;472827;251;27804;-71
2021/05/12 04:54:33;;;;;;;22.43;15.60;;;10.10;99.90;;;;;;472827;251;28602;-71
2021/05/12 04:56:35;;;;;;;16.30;13.60;;;10.20;99.90;;;;;;472806;251;28350;-74
2021/05/12 04:58:36;;;;;;;20.83;14.03;;;10.20;99.90;;;;;;472829;251;28066;-71
2021/05/12 05:00:37;;;;;;;16.57;13.33;;;10.20;99.90;;;;;;472829;251;27927;-71
2021/05/12 05:02:39;;;;;;;18.70;13.83;;;10.20;99.90;;;;;;472805;251;27649;-71
2021/05/12 05:04:40;;;;;;;19.30;14.10;;;10.20;99.90;;;;;;472831;251;27969;-71
2021/05/12 05:06:41;;;;;;;21.20;14.73;;;10.20;99.90;;;;;;472819;251;27872;-73
2021/05/12 05:08:42;;;;;;;17.07;12.70;;;10.10;99.90;;;;;;472855;251;28393;-71
2021/05/12 05:10:44;;;;;;;16.43;13.10;;;10.10;99.90;;;;;;472802;251;28253;-71
2021/05/12 05:12:45;;;;;;;14.47;12.93;;;10.10;99.90;;;;;;472841;251;27832;-71
2021/05/12 05:14:46;;;;;;;14.07;11.40;;;10.10;99.90;;;;;;472850;251;28122;-71
2021/05/12 05:16:48;;;;;;;14.57;11.10;;;10.20;99.90;;;;;;472818;251;27899;-71
2021/05/12 05:18:49;;;;;;;16.50;11.73;;;10.20;99.90;;;;;;472849;251;27935;-72
2021/05/12 05:20:50;;;;;;;17.33;10.87;;;10.20;99.90;;;;;;472754;251;28047;-71
2021/05/12 05:22:51;;;;;;;14.00;11.30;;;10.20;99.90;;;;;;472857;251;28480;-71
2021/05/12 05:24:52;;;;;;;15.90;11.67;;;10.20;99.90;;;;;;472826;251;28409;-71
2021/05/12 05:26:54;;;;;;;19.77;15.10;;;10.20;99.90;;;;;;472837;251;27994;-71
2021/05/12 05:28:55;;;;;;;15.23;12.00;;;10.20;99.90;;;;;;472866;251;27750;-71
2021/05/12 05:30:56;;;;;;;16.87;12.03;;;10.20;99.90;;;;;;472845;251;27786;-72
2021/05/12 05:32:57;;;;;;;20.97;14.40;;;10.10;99.90;;;;;;472861;251;27872;-70
2021/05/12 05:34:59;;;;;;;14.80;11.97;;;10.20;99.90;;;;;;472834;251;27888;-72
2021/05/12 05:37:00;;;;;;;22.20;14.23;;;10.20;99.90;;;;;;472811;251;28576;-71
2021/05/12 05:39:01;;;;;;;14.17;11.60;;;10.20;99.90;;;;;;472839;251;28350;-71
2021/05/12 05:41:02;;;;;;;17.70;12.20;;;10.20;99.90;;;;;;472807;251;27991;-71
2021/05/12 05:43:07;;;;;;;18.90;13.00;;;10.20;99.90;;;;;;472821;251;28009;-71
2021/05/12 05:45:05;;;;;;;20.50;13.10;;;10.20;99.90;;;;;;472779;251;28003;-71
2021/05/12 05:47:06;;;;;;;17.63;12.83;;;10.20;99.90;;;;;;472801;251;27916;-73
2021/05/12 05:49:07;;;;;;;18.87;12.63;;;10.20;99.90;;;;;;472841;251;27885;-71
2021/05/12 05:51:09;;;;;;;15.73;10.60;;;10.20;99.90;;;;;;472827;251;28641;-72
2021/05/12 05:53:10;;;;;;;13.40;10.73;;;10.30;99.90;;;;;;472785;251;28557;-71
2021/05/12 05:55:11;;;;;;;18.33;11.90;;;10.30;99.90;;;;;;472758;251;28039;-71
2021/05/12 05:57:15;;;;;;;15.10;11.70;;;10.40;99.90;;;;;;472823;251;28027;-71
2021/05/12 05:59:17;;;;;;;12.70;10.83;;;10.30;99.90;;;;;;472811;251;28192;-73
2021/05/12 06:01:18;;;;;;;15.13;10.93;;;10.30;99.90;;;;;;472827;251;28122;-71
2021/05/12 06:03:19;;;;;;;13.07;11.40;;;10.30;99.90;;;;;;472805;251;28220;-71
2021/05/12 06:05:20;;;;;;;11.20;9.80;;;10.30;99.90;;;;;;472822;251;27974;-71
2021/05/12 06:07:22;;;;;;;13.90;9.90;;;10.40;99.90;;;;;;472815;251;28124;-71
2021/05/12 06:09:23;;;;;;;18.87;11.53;;;10.40;99.90;;;;;;472794;251;28609;-73
2021/05/12 06:11:24;;;;;;;17.07;12.83;;;10.30;99.90;;;;;;472814;251;28460;-71
2021/05/12 06:13:25;;;;;;;18.77;12.50;;;10.30;99.90;;;;;;472823;251;28009;-71
2021/05/12 06:15:27;;;;;;;17.60;12.47;;;10.30;99.90;;;;;;472830;251;27864;-71
2021/05/12 06:17:28;;;;;;;19.10;13.20;;;10.30;99.90;;;;;;472836;251;28076;-71
2021/05/12 06:19:29;;;;;;;14.83;12.07;;;10.10;99.90;;;;;;472854;251;28371;-73
2021/05/12 06:21:31;;;;;;;20.80;14.23;;;10.20;99.90;;;;;;472821;251;28109;-71
2021/05/12 06:23:32;;;;;;;20.47;13.27;;;10.20;99.90;;;;;;472785;248;28714;-70
2021/05/12 06:25:33;;;;;;;16.67;11.43;;;10.30;99.90;;;;;;472824;251;28345;-71
2021/05/12 06:27:34;;;;;;;16.57;11.07;;;10.30;99.90;;;;;;472634;251;28048;-72
2021/05/12 06:29:37;;;;;;;17.67;12.73;;;10.30;99.90;;;;;;472813;251;28047;-71
2021/05/12 06:31:37;;;;;;;16.50;11.40;;;10.20;99.90;;;;;;472778;251;28107;-71
2021/05/12 06:33:39;;;;;;;19.13;12.77;;;10.20;99.90;;;;;;472824;251;27913;-71
2021/05/12 06:35:39;;;;;;;18.50;12.13;;;10.20;99.90;;;;;;472817;251;27755;-70
2021/05/12 06:37:41;;;;;;;19.83;14.13;;;10.20;99.90;;;;;;472842;251;28565;-71
2021/05/12 06:39:42;;;;;;;19.43;13.37;;;10.10;99.90;;;;;;472812;251;28708;-73
2021/05/12 06:41:43;;;;;;;21.53;15.37;;;10.20;99.90;;;;;;472849;251;27756;-71
2021/05/12 06:43:44;;;;;;;14.60;11.50;;;10.10;99.90;;;;;;472839;251;27937;-71
2021/05/12 06:45:46;;;;;;;17.80;12.17;;;10.20;99.90;;;;;;472834;251;28135;-71
2021/05/12 06:47:53;;;;;;;16.80;12.80;;;10.30;99.90;;;;;;472827;251;27903;-71
2021/05/12 06:49:48;;;;;;;24.97;15.03;;;10.20;99.90;;;;;;472728;251;28116;-73
2021/05/12 06:51:49;;;;;;;23.43;14.97;;;10.20;99.90;;;;;;472807;251;28453;-71
2021/05/12 06:53:51;;;;;;;14.23;12.00;;;10.20;99.90;;;;;;472819;251;28613;-72
2021/05/12 06:55:52;;;;;;;14.00;11.57;;;10.30;99.90;;;;;;472827;251;28119;-71
2021/05/12 06:57:53;;;;;;;17.77;12.83;;;10.30;99.90;;;;;;472817;251;27943;-71
2021/05/12 06:59:54;;;;;;;16.87;13.30;;;10.30;99.90;;;;;;472777;251;27984;-71
2021/05/12 07:01:56;;;;;;;18.00;14.37;;;10.20;99.90;;;;;;472819;251;27976;-71
2021/05/12 07:03:57;;;;;;;21.83;13.83;;;10.20;99.90;;;;;;472690;251;28167;-71
2021/05/12 07:05:59;;;;;;;17.37;13.40;;;10.30;99.90;;;;;;472815;251;28312;-71
2021/05/12 07:07:59;;;;;;;22.77;14.13;;;10.20;99.90;;;;;;472834;251;28656;-71
2021/05/12 07:10:01;;;;;;;19.83;14.57;;;10.30;99.90;;;;;;472802;251;28149;-71
2021/05/12 07:12:02;;;;;;;19.30;14.93;;;10.30;99.90;;;;;;472819;251;28040;-71
2021/05/12 07:14:06;;;;;;;17.07;12.87;;;10.30;99.90;;;;;;472850;251;27958;-71
2021/05/12 07:16:05;;;;;;;18.83;13.93;;;10.30;99.90;;;;;;472817;251;27990;-71
2021/05/12 07:18:06;;;;;;;22.00;14.77;;;10.40;99.90;;;;;;472840;251;28021;-72
2021/05/12 07:20:07;;;;;;;26.70;14.53;;;10.40;99.90;;;;;;472810;251;28471;-71
2021/05/12 07:22:08;;;;;;;20.07;15.03;;;10.40;99.90;;;;;;472845;251;28566;-71
2021/05/12 07:24:10;;;;;;;22.47;16.13;;;10.40;99.90;;;;;;472815;251;28172;-72
2021/05/12 07:26:11;;;;;;;19.70;14.10;;;10.50;99.90;;;;;;472839;251;27895;-71
2021/05/12 07:28:14;;;;;;;19.23;13.73;;;10.50;99.90;;;;;;472851;251;28054;-72
2021/05/12 07:30:15;;;;;;;18.50;14.13;;;10.50;99.90;;;;;;472766;251;28083;-71
2021/05/12 07:32:15;;;;;;;23.10;16.07;;;10.40;99.90;;;;;;472235;251;27978;-71
2021/05/12 07:34:16;;;;;;;21.97;13.50;;;10.40;99.90;;;;;;472812;251;28640;-74
2021/05/12 07:36:17;;;;;;;20.37;13.90;;;10.40;99.90;;;;;;472863;251;28608;-71
2021/05/12 07:38:18;;;;;;;21.77;14.90;;;10.50;99.90;;;;;;472782;251;28385;-71
2021/05/12 07:40:20;;;;;;;20.13;15.13;;;10.40;99.90;;;;;;472674;251;28006;-71
2021/05/12 07:42:24;;;;;;;16.10;13.10;;;10.40;99.90;;;;;;472837;251;28043;-71
2021/05/12 07:44:22;;;;;;;21.43;15.03;;;10.40;99.90;;;;;;472771;251;28033;-72
2021/05/12 07:46:23;;;;;;;19.53;14.53;;;10.40;99.90;;;;;;472832;251;28220;-71
2021/05/12 07:48:25;;;;;;;22.13;14.77;;;10.40;99.90;;;;;;472825;251;28448;-71
2021/05/12 07:50:26;;;;;;;20.07;15.30;;;10.40;99.90;;;;;;472829;251;30626;-70
2021/05/12 07:52:27;;;;;;;17.63;13.77;;;10.40;99.90;;;;;;472832;251;28001;-71
2021/05/12 07:54:28;;;;;;;16.00;13.33;;;10.50;99.90;;;;;;472854;251;27991;-73
2021/05/12 07:56:30;;;;;;;18.80;14.30;;;10.60;99.90;;;;;;472863;251;27978;-71
2021/05/12 07:58:31;;;;;;;18.17;13.63;;;10.70;99.90;;;;;;472855;251;27923;-71
2021/05/12 08:00:34;;;;;;;22.20;14.23;;;10.60;99.90;;;;;;472846;251;28033;-71
2021/05/12 08:02:34;;;;;;;18.70;14.80;;;10.60;99.90;;;;;;472815;250;28624;-71
2021/05/12 08:04:35;;;;;;;17.23;14.27;;;10.60;99.90;;;;;;472809;251;28735;-71
2021/05/12 08:06:36;;;;;;;24.03;15.40;;;10.70;99.90;;;;;;472845;251;28100;-71
2021/05/12 08:08:38;;;;;;;19.90;13.93;;;10.80;99.90;;;;;;472843;251;28178;-71
2021/05/12 08:10:38;;;;;;;18.50;13.00;;;10.70;99.90;;;;;;472788;251;28086;-71
2021/05/12 08:12:40;;;;;;;21.63;14.20;;;10.80;99.90;;;;;;472789;251;27973;-71
2021/05/12 08:14:41;;;;;;;16.67;12.73;;;10.90;99.90;;;;;;472830;251;28045;-72
2021/05/12 08:16:43;;;;;;;18.73;14.10;;;10.90;99.90;;;;;;472837;251;28654;-71
2021/05/12 08:18:43;;;;;;;18.97;13.87;;;11.00;99.90;;;;;;472822;251;28595;-71
2021/05/12 08:20:45;;;;;;;18.77;14.60;;;11.00;99.90;;;;;;472829;251;28021;-70
2021/05/12 08:22:46;;;;;;;19.27;13.60;;;11.10;99.90;;;;;;472801;251;28454;-71
2021/05/12 08:24:47;;;;;;;21.00;13.80;;;11.20;99.90;;;;;;472826;251;28116;-72
2021/05/12 08:26:48;;;;;;;16.23;13.17;;;11.40;99.90;;;;;;472829;251;28252;-71
2021/05/12 08:28:50;;;;;;;17.20;13.40;;;11.50;99.90;;;;;;472840;251;28128;-71
2021/05/12 08:30:51;;;;;;;16.30;13.87;;;11.70;99.90;;;;;;472823;251;28712;-71
2021/05/12 08:32:52;;;;;;;15.87;12.10;;;11.90;99.90;;;;;;472819;251;28918;-72
2021/05/12 08:34:54;;;;;;;16.80;12.17;;;12.00;99.90;;;;;;472829;251;28567;-71
2021/05/12 08:36:55;;;;;;;14.07;11.93;;;12.30;99.90;;;;;;472798;251;28095;-71
2021/05/12 08:38:56;;;;;;;17.27;13.33;;;12.40;99.90;;;;;;472821;251;28134;-72
2021/05/12 08:40:58;;;;;;;21.20;12.13;;;12.30;99.90;;;;;;472842;251;28847;-71
2021/05/12 08:42:59;;;;;;;15.20;11.93;;;12.50;99.90;;;;;;472799;251;28130;-71
2021/05/12 08:45:00;;;;;;;12.53;11.03;;;12.50;99.90;;;;;;472845;251;28869;-72
2021/05/12 08:47:01;;;;;;;14.60;11.77;;;12.90;99.90;;;;;;472831;251;28916;-71
2021/05/12 08:49:02;;;;;;;13.93;10.70;;;13.20;99.90;;;;;;472831;251;28457;-71
2021/05/12 08:51:04;;;;;;;15.20;11.30;;;13.30;99.90;;;;;;472766;251;28859;-71
2021/05/12 08:53:05;;;;;;;14.93;11.80;;;13.30;99.90;;;;;;472815;251;28947;-72
2021/05/12 08:55:07;;;;;;;18.00;10.97;;;13.20;99.90;;;;;;472829;251;28386;-73
2021/05/12 08:57:07;;;;;;;12.80;10.83;;;12.80;99.90;;;;;;472815;251;28742;-71
2021/05/12 08:59:09;;;;;;;15.17;10.17;;;12.80;99.90;;;;;;472824;251;29266;-71
2021/05/12 09:01:10;;;;;;;11.80;8.20;;;12.90;99.90;;;;;;472823;251;29283;-71
2021/05/12 09:03:11;;;;;;;10.67;9.10;;;13.00;99.90;;;;;;472790;251;28765;-71
2021/05/12 09:05:12;;;;;;;14.70;9.23;;;13.00;99.90;;;;;;472796;251;28801;-73
2021/05/12 09:07:14;;;;;;;10.23;8.60;;;13.00;99.90;;;;;;472843;251;28412;-71
2021/05/12 09:09:16;;;;;;;12.63;8.90;;;12.90;99.90;;;;;;472837;251;28892;-71
2021/05/12 09:11:16;;;;;;;14.07;8.40;;;12.80;99.90;;;;;;472819;251;28561;-71
2021/05/12 09:13:17;;;;;;;11.33;9.23;;;13.10;99.90;;;;;;472826;251;28782;-71
2021/05/12 09:15:20;;;;;;;11.10;8.80;;;13.20;99.90;;;;;;472846;251;28968;-72
2021/05/12 09:17:20;;;;;;;11.50;8.80;;;13.40;99.90;;;;;;472824;251;29210;-71
2021/05/12 09:19:21;;;;;;;11.17;9.40;;;13.40;99.90;;;;;;472832;249;28971;-71
2021/05/12 09:21:23;;;;;;;16.50;10.03;;;13.50;99.90;;;;;;472838;251;28362;-71
2021/05/12 09:23:28;;;;;;;11.60;8.57;;;13.50;99.90;;;;;;472803;250;28776;-71
2021/05/12 09:25:25;;;;;;;8.83;7.93;;;13.40;99.90;;;;;;472581;251;28797;-73
2021/05/12 09:27:26;;;;;;;13.37;9.80;;;13.40;99.90;;;;;;472732;251;28518;-71
2021/05/12 09:29:27;;;;;;;9.87;8.70;;;13.60;99.90;;;;;;472749;251;28848;-71
2021/05/12 09:31:29;;;;;;;11.20;8.30;;;13.70;99.90;;;;;;472768;251;28760;-71
2021/05/12 09:33:33;;;;;;;12.70;9.77;;;13.90;99.90;;;;;;472790;251;28926;-71
2021/05/12 09:35:34;;;;;;;12.70;8.50;;;14.20;99.90;;;;;;472772;251;29305;-72
2021/05/12 09:37:35;;;;;;;13.60;9.30;;;14.40;99.90;;;;;;472811;251;28797;-72
2021/05/12 09:39:37;;;;;;;10.77;8.17;;;14.40;99.90;;;;;;472817;251;28750;-71
2021/05/12 09:41:38;;;;;;;10.57;8.13;;;14.20;99.90;;;;;;472786;251;28775;-71
2021/05/12 09:43:45;;;;;;;12.00;8.40;;;14.20;99.90;;;;;;472801;251;28757;-71
2021/05/12 09:45:40;;;;;;;13.67;8.80;;;14.10;99.90;;;;;;472706;251;28790;-71
2021/05/12 09:47:42;;;;;;;14.80;9.30;;;14.20;99.90;;;;;;472824;251;28910;-72
2021/05/12 09:49:43;;;;;;;12.03;9.10;;;14.30;99.90;;;;;;472814;251;29336;-72
2021/05/12 09:51:44;;;;;;;12.60;8.83;;;14.30;99.90;;;;;;472823;251;29398;-72
2021/05/12 09:53:45;;;;;;;13.97;8.17;;;14.30;99.90;;;;;;472611;251;29238;-72
2021/05/12 09:55:47;;;;;;;9.93;8.23;;;14.20;99.90;;;;;;472812;245;28775;-71
2021/05/12 09:57:48;;;;;;;11.30;8.47;;;14.30;99.90;;;;;;472815;251;28872;-74
2021/05/12 09:59:49;;;;;;;11.60;9.03;;;14.40;99.90;;;;;;472814;251;28822;-71
2021/05/12 10:01:50;;;;;;;10.73;7.93;;;14.30;99.90;;;;;;472716;251;28799;-72
2021/05/12 10:03:52;;;;;;;11.30;8.20;;;14.40;99.90;;;;;;472813;251;28843;-72
2021/05/12 10:05:53;;;;;;;17.47;8.63;;;14.10;99.90;;;;;;472790;251;28846;-72
2021/05/12 10:07:57;;;;;;;10.67;8.27;;;13.70;99.90;;;;;;472828;251;29264;-74
2021/05/12 10:09:55;;;;;;;12.00;8.57;;;13.90;99.90;;;;;;472770;251;29234;-71
2021/05/12 10:11:57;;;;;;;15.03;9.07;;;14.00;99.90;;;;;;472808;251;29355;-73
2021/05/12 10:13:58;;;;;;;15.53;9.60;;;14.30;99.90;;;;;;472831;251;28751;-71
2021/05/12 10:15:59;;;;;;;12.27;8.27;;;14.50;99.90;;;;;;472823;251;28833;-72
2021/05/12 10:18:00;;;;;;;9.37;7.40;;;14.40;99.90;;;;;;472830;251;29126;-73